sensor_id;sensor_type;location;lat;lon;timestamp;P1;durP1;ratioP1;P2;durP2;ratioP2
83447;SDS011;73376;45.472;-73.568;2024-01-15T00:02:15;10.77;;;4.67;;
83447;SDS011;73376;45.472;-73.568;2024-01-15T00:04:41;9.40;;;4.47;;
83447;SDS011;73376;45.472;-73.568;2024-01-15T00:07:07;10.50;;;3.80;;
83447;SDS011;73376;45.472;-73.568;2024-01-15T00:09:36;11.50;;;3.90;;
83447;SDS011;73376;45.472;-73.568;2024-01-15T00:12:05;7.50;;;3.00;;
83447;SDS011;73376;45.472;-73.568;2024-01-15T00:14:31;8.20;;;3.37;;
83447;SDS011;73376;45.472;-73.568;2024-01-15T00:16:57;8.00;;;3.03;;
83447;SDS011;73376;45.472;-73.568;2024-01-15T00:19:23;4.73;;;2.40;;
83447;SDS011;73376;45.472;-73.568;2024-01-15T00:21:57;5.00;;;2.37;;
83447;SDS011;73376;45.472;-73.568;2024-01-15T00:24:24;4.63;;;2.13;;
83447;SDS011;73376;45.472;-73.568;2024-01-15T00:26:50;5.10;;;2.00;;
83447;SDS011;73376;45.472;-73.568;2024-01-15T00:29:16;6.43;;;2.30;;
83447;SDS011;73376;45.472;-73.568;2024-01-15T00:31:42;9.33;;;2.17;;
83447;SDS011;73376;45.472;-73.568;2024-01-15T00:34:08;3.43;;;1.70;;
83447;SDS011;73376;45.472;-73.568;2024-01-15T00:36:35;5.97;;;2.27;;
83447;SDS011;73376;45.472;-73.568;2024-01-15T00:39:01;2.83;;;1.33;;
83447;SDS011;73376;45.472;-73.568;2024-01-15T00:41:30;6.77;;;1.80;;
83447;SDS011;73376;45.472;-73.568;2024-01-15T00:43:58;8.27;;;1.90;;
83447;SDS011;73376;45.472;-73.568;2024-01-15T00:46:25;4.23;;;1.70;;
83447;SDS011;73376;45.472;-73.568;2024-01-15T00:48:51;4.10;;;1.30;;
83447;SDS011;73376;45.472;-73.568;2024-01-15T00:51:18;7.67;;;1.40;;
83447;SDS011;73376;45.472;-73.568;2024-01-15T00:53:44;4.67;;;1.20;;
83447;SDS011;73376;45.472;-73.568;2024-01-15T00:56:11;3.83;;;1.40;;
83447;SDS011;73376;45.472;-73.568;2024-01-15T00:58:37;5.30;;;1.60;;
83447;SDS011;73376;45.472;-73.568;2024-01-15T01:01:06;5.50;;;1.20;;
83447;SDS011;73376;45.472;-73.568;2024-01-15T01:03:36;3.97;;;1.47;;
83447;SDS011;73376;45.472;-73.568;2024-01-15T01:06:03;3.50;;;1.40;;
83447;SDS011;73376;45.472;-73.568;2024-01-15T01:08:32;6.80;;;1.47;;
83447;SDS011;73376;45.472;-73.568;2024-01-15T01:11:00;5.03;;;1.20;;
83447;SDS011;73376;45.472;-73.568;2024-01-15T01:13:26;2.83;;;0.90;;
83447;SDS011;73376;45.472;-73.568;2024-01-15T01:15:53;7.70;;;1.37;;
83447;SDS011;73376;45.472;-73.568;2024-01-15T01:18:20;1.93;;;1.23;;
83447;SDS011;73376;45.472;-73.568;2024-01-15T01:20:47;2.90;;;0.97;;
83447;SDS011;73376;45.472;-73.568;2024-01-15T01:23:14;6.10;;;1.73;;
83447;SDS011;73376;45.472;-73.568;2024-01-15T01:25:44;1.37;;;0.70;;
83447;SDS011;73376;45.472;-73.568;2024-01-15T01:28:11;3.50;;;1.00;;
83447;SDS011;73376;45.472;-73.568;2024-01-15T01:30:39;3.00;;;1.00;;
83447;SDS011;73376;45.472;-73.568;2024-01-15T01:33:05;4.10;;;1.30;;
83447;SDS011;73376;45.472;-73.568;2024-01-15T01:35:34;4.47;;;0.90;;
83447;SDS011;73376;45.472;-73.568;2024-01-15T01:38:00;4.43;;;0.93;;
83447;SDS011;73376;45.472;-73.568;2024-01-15T01:40:27;3.53;;;0.70;;
83447;SDS011;73376;45.472;-73.568;2024-01-15T01:42:54;2.37;;;0.87;;
83447;SDS011;73376;45.472;-73.568;2024-01-15T01:45:21;2.33;;;0.83;;
83447;SDS011;73376;45.472;-73.568;2024-01-15T01:47:48;2.53;;;0.97;;
83447;SDS011;73376;45.472;-73.568;2024-01-15T01:50:16;4.67;;;0.80;;
83447;SDS011;73376;45.472;-73.568;2024-01-15T01:52:43;2.63;;;0.90;;
83447;SDS011;73376;45.472;-73.568;2024-01-15T01:55:10;2.97;;;0.60;;
83447;SDS011;73376;45.472;-73.568;2024-01-15T01:57:39;3.30;;;1.07;;
83447;SDS011;73376;45.472;-73.568;2024-01-15T02:00:08;9.20;;;0.97;;
83447;SDS011;73376;45.472;-73.568;2024-01-15T02:02:44;1.53;;;0.70;;
83447;SDS011;73376;45.472;-73.568;2024-01-15T02:05:14;1.90;;;0.80;;
83447;SDS011;73376;45.472;-73.568;2024-01-15T02:07:47;3.17;;;0.80;;
83447;SDS011;73376;45.472;-73.568;2024-01-15T02:10:17;4.43;;;0.63;;
83447;SDS011;73376;45.472;-73.568;2024-01-15T02:12:44;2.13;;;0.70;;
83447;SDS011;73376;45.472;-73.568;2024-01-15T02:15:14;2.53;;;0.70;;
83447;SDS011;73376;45.472;-73.568;2024-01-15T02:20:27;9.93;;;1.00;;
83447;SDS011;73376;45.472;-73.568;2024-01-15T02:23:00;2.00;;;0.70;;
83447;SDS011;73376;45.472;-73.568;2024-01-15T02:25:45;6.40;;;1.20;;
83447;SDS011;73376;45.472;-73.568;2024-01-15T02:28:14;3.23;;;0.87;;
83447;SDS011;73376;45.472;-73.568;2024-01-15T02:30:48;1.00;;;0.77;;
83447;SDS011;73376;45.472;-73.568;2024-01-15T02:33:16;2.37;;;1.00;;
83447;SDS011;73376;45.472;-73.568;2024-01-15T02:35:44;3.97;;;0.83;;
83447;SDS011;73376;45.472;-73.568;2024-01-15T02:38:15;1.67;;;0.60;;
83447;SDS011;73376;45.472;-73.568;2024-01-15T02:40:43;3.07;;;0.70;;
83447;SDS011;73376;45.472;-73.568;2024-01-15T02:43:13;1.93;;;0.60;;
83447;SDS011;73376;45.472;-73.568;2024-01-15T02:45:41;2.90;;;0.70;;
83447;SDS011;73376;45.472;-73.568;2024-01-15T02:48:08;2.27;;;0.70;;
83447;SDS011;73376;45.472;-73.568;2024-01-15T02:50:35;2.63;;;0.70;;
83447;SDS011;73376;45.472;-73.568;2024-01-15T02:53:02;3.23;;;0.60;;
83447;SDS011;73376;45.472;-73.568;2024-01-15T02:55:29;2.93;;;1.20;;
83447;SDS011;73376;45.472;-73.568;2024-01-15T02:57:57;3.43;;;0.70;;
83447;SDS011;73376;45.472;-73.568;2024-01-15T03:00:26;1.80;;;0.77;;
83447;SDS011;73376;45.472;-73.568;2024-01-15T03:02:54;2.07;;;0.70;;
83447;SDS011;73376;45.472;-73.568;2024-01-15T03:05:21;1.27;;;0.63;;
83447;SDS011;73376;45.472;-73.568;2024-01-15T03:07:48;3.03;;;0.90;;
83447;SDS011;73376;45.472;-73.568;2024-01-15T03:10:15;1.87;;;0.70;;
83447;SDS011;73376;45.472;-73.568;2024-01-15T03:12:42;2.90;;;0.80;;
83447;SDS011;73376;45.472;-73.568;2024-01-15T03:15:09;2.20;;;0.60;;
83447;SDS011;73376;45.472;-73.568;2024-01-15T03:17:39;2.67;;;0.80;;
83447;SDS011;73376;45.472;-73.568;2024-01-15T03:20:10;2.77;;;0.63;;
83447;SDS011;73376;45.472;-73.568;2024-01-15T03:22:37;3.63;;;0.80;;
83447;SDS011;73376;45.472;-73.568;2024-01-15T03:25:04;3.57;;;1.33;;
83447;SDS011;73376;45.472;-73.568;2024-01-15T03:27:32;3.17;;;0.70;;
83447;SDS011;73376;45.472;-73.568;2024-01-15T03:29:59;1.40;;;0.80;;
83447;SDS011;73376;45.472;-73.568;2024-01-15T03:32:25;2.87;;;0.50;;
83447;SDS011;73376;45.472;-73.568;2024-01-15T03:34:52;2.43;;;0.70;;
83447;SDS011;73376;45.472;-73.568;2024-01-15T03:37:18;2.17;;;0.70;;
83447;SDS011;73376;45.472;-73.568;2024-01-15T03:39:45;2.40;;;0.60;;
83447;SDS011;73376;45.472;-73.568;2024-01-15T03:42:11;3.23;;;0.90;;
83447;SDS011;73376;45.472;-73.568;2024-01-15T03:44:39;2.03;;;0.70;;
83447;SDS011;73376;45.472;-73.568;2024-01-15T03:47:06;2.03;;;0.53;;
83447;SDS011;73376;45.472;-73.568;2024-01-15T03:49:35;1.67;;;0.70;;
83447;SDS011;73376;45.472;-73.568;2024-01-15T03:52:02;3.17;;;0.67;;
83447;SDS011;73376;45.472;-73.568;2024-01-15T03:54:35;2.93;;;0.57;;
83447;SDS011;73376;45.472;-73.568;2024-01-15T03:57:04;4.33;;;0.70;;
83447;SDS011;73376;45.472;-73.568;2024-01-15T03:59:31;1.87;;;1.03;;
83447;SDS011;73376;45.472;-73.568;2024-01-15T04:01:57;10.33;;;1.00;;
83447;SDS011;73376;45.472;-73.568;2024-01-15T04:04:23;1.37;;;0.70;;
83447;SDS011;73376;45.472;-73.568;2024-01-15T04:06:50;3.80;;;0.67;;
83447;SDS011;73376;45.472;-73.568;2024-01-15T04:09:17;1.50;;;0.63;;
83447;SDS011;73376;45.472;-73.568;2024-01-15T04:11:44;2.70;;;0.80;;
83447;SDS011;73376;45.472;-73.568;2024-01-15T04:14:11;2.40;;;0.80;;
83447;SDS011;73376;45.472;-73.568;2024-01-15T04:16:39;2.90;;;0.67;;
83447;SDS011;73376;45.472;-73.568;2024-01-15T04:19:06;2.37;;;0.60;;
83447;SDS011;73376;45.472;-73.568;2024-01-15T04:21:34;1.80;;;0.50;;
83447;SDS011;73376;45.472;-73.568;2024-01-15T04:24:01;2.13;;;0.73;;
83447;SDS011;73376;45.472;-73.568;2024-01-15T04:26:31;5.13;;;0.90;;
83447;SDS011;73376;45.472;-73.568;2024-01-15T04:28:57;2.73;;;0.70;;
83447;SDS011;73376;45.472;-73.568;2024-01-15T04:31:27;1.93;;;0.60;;
83447;SDS011;73376;45.472;-73.568;2024-01-15T04:33:54;2.00;;;0.57;;
83447;SDS011;73376;45.472;-73.568;2024-01-15T04:36:20;1.70;;;0.67;;
83447;SDS011;73376;45.472;-73.568;2024-01-15T04:38:48;2.67;;;0.77;;
83447;SDS011;73376;45.472;-73.568;2024-01-15T04:41:18;1.80;;;0.50;;
83447;SDS011;73376;45.472;-73.568;2024-01-15T04:43:44;3.43;;;0.67;;
83447;SDS011;73376;45.472;-73.568;2024-01-15T04:46:14;2.20;;;0.60;;
83447;SDS011;73376;45.472;-73.568;2024-01-15T04:48:41;1.50;;;0.50;;
83447;SDS011;73376;45.472;-73.568;2024-01-15T04:51:08;5.33;;;0.87;;
83447;SDS011;73376;45.472;-73.568;2024-01-15T04:53:35;5.20;;;0.70;;
83447;SDS011;73376;45.472;-73.568;2024-01-15T04:56:01;1.77;;;0.53;;
83447;SDS011;73376;45.472;-73.568;2024-01-15T04:58:27;2.47;;;0.60;;
83447;SDS011;73376;45.472;-73.568;2024-01-15T05:00:54;2.13;;;0.60;;
83447;SDS011;73376;45.472;-73.568;2024-01-15T05:03:20;1.47;;;0.60;;
83447;SDS011;73376;45.472;-73.568;2024-01-15T05:05:47;1.47;;;0.80;;
83447;SDS011;73376;45.472;-73.568;2024-01-15T05:08:13;1.73;;;0.60;;
83447;SDS011;73376;45.472;-73.568;2024-01-15T05:10:39;1.87;;;0.63;;
83447;SDS011;73376;45.472;-73.568;2024-01-15T05:13:05;1.63;;;0.70;;
83447;SDS011;73376;45.472;-73.568;2024-01-15T05:15:31;1.40;;;0.47;;
83447;SDS011;73376;45.472;-73.568;2024-01-15T05:18:02;5.50;;;0.80;;
83447;SDS011;73376;45.472;-73.568;2024-01-15T05:20:30;3.47;;;0.60;;
83447;SDS011;73376;45.472;-73.568;2024-01-15T05:22:57;2.67;;;0.60;;
83447;SDS011;73376;45.472;-73.568;2024-01-15T05:25:23;2.20;;;0.70;;
83447;SDS011;73376;45.472;-73.568;2024-01-15T05:27:51;2.03;;;0.90;;
83447;SDS011;73376;45.472;-73.568;2024-01-15T05:30:20;1.63;;;0.80;;
83447;SDS011;73376;45.472;-73.568;2024-01-15T05:32:46;1.08;;;0.60;;
83447;SDS011;73376;45.472;-73.568;2024-01-15T05:35:12;5.90;;;0.97;;
83447;SDS011;73376;45.472;-73.568;2024-01-15T05:37:40;1.53;;;0.50;;
83447;SDS011;73376;45.472;-73.568;2024-01-15T05:40:09;0.60;;;0.40;;
83447;SDS011;73376;45.472;-73.568;2024-01-15T05:42:35;2.50;;;0.60;;
83447;SDS011;73376;45.472;-73.568;2024-01-15T05:45:01;1.03;;;0.50;;
83447;SDS011;73376;45.472;-73.568;2024-01-15T05:47:29;1.77;;;0.60;;
83447;SDS011;73376;45.472;-73.568;2024-01-15T05:49:56;2.60;;;0.90;;
83447;SDS011;73376;45.472;-73.568;2024-01-15T05:52:22;2.05;;;0.50;;
83447;SDS011;73376;45.472;-73.568;2024-01-15T05:54:51;1.73;;;0.70;;
83447;SDS011;73376;45.472;-73.568;2024-01-15T05:57:17;1.45;;;0.60;;
83447;SDS011;73376;45.472;-73.568;2024-01-15T05:59:46;0.88;;;0.40;;
83447;SDS011;73376;45.472;-73.568;2024-01-15T06:02:12;1.23;;;0.60;;
83447;SDS011;73376;45.472;-73.568;2024-01-15T06:04:38;4.00;;;0.70;;
83447;SDS011;73376;45.472;-73.568;2024-01-15T06:07:04;1.60;;;0.70;;
83447;SDS011;73376;45.472;-73.568;2024-01-15T06:09:30;2.13;;;0.60;;
83447;SDS011;73376;45.472;-73.568;2024-01-15T06:11:56;1.67;;;0.75;;
83447;SDS011;73376;45.472;-73.568;2024-01-15T06:14:22;2.93;;;0.73;;
83447;SDS011;73376;45.472;-73.568;2024-01-15T06:16:48;2.20;;;0.60;;
83447;SDS011;73376;45.472;-73.568;2024-01-15T06:19:20;2.42;;;0.73;;
83447;SDS011;73376;45.472;-73.568;2024-01-15T06:21:46;1.40;;;0.50;;
83447;SDS011;73376;45.472;-73.568;2024-01-15T06:24:12;1.07;;;0.50;;
83447;SDS011;73376;45.472;-73.568;2024-01-15T06:26:39;0.85;;;0.45;;
83447;SDS011;73376;45.472;-73.568;2024-01-15T06:29:05;2.03;;;0.57;;
83447;SDS011;73376;45.472;-73.568;2024-01-15T06:31:31;3.50;;;0.88;;
83447;SDS011;73376;45.472;-73.568;2024-01-15T06:33:57;2.50;;;0.70;;
83447;SDS011;73376;45.472;-73.568;2024-01-15T06:36:26;1.95;;;0.60;;
83447;SDS011;73376;45.472;-73.568;2024-01-15T06:38:52;2.33;;;0.70;;
83447;SDS011;73376;45.472;-73.568;2024-01-15T06:41:17;1.33;;;0.50;;
83447;SDS011;73376;45.472;-73.568;2024-01-15T06:43:43;1.45;;;0.60;;
83447;SDS011;73376;45.472;-73.568;2024-01-15T06:46:09;1.20;;;0.60;;
83447;SDS011;73376;45.472;-73.568;2024-01-15T06:48:35;3.00;;;0.80;;
83447;SDS011;73376;45.472;-73.568;2024-01-15T06:51:02;2.55;;;0.70;;
83447;SDS011;73376;45.472;-73.568;2024-01-15T06:53:28;0.87;;;0.40;;
83447;SDS011;73376;45.472;-73.568;2024-01-15T06:55:54;1.23;;;0.50;;
83447;SDS011;73376;45.472;-73.568;2024-01-15T06:58:20;1.83;;;0.50;;
83447;SDS011;73376;45.472;-73.568;2024-01-15T07:00:46;0.93;;;0.52;;
83447;SDS011;73376;45.472;-73.568;2024-01-15T07:03:14;1.27;;;0.47;;
83447;SDS011;73376;45.472;-73.568;2024-01-15T07:05:40;1.65;;;0.52;;
83447;SDS011;73376;45.472;-73.568;2024-01-15T07:08:06;1.25;;;0.38;;
83447;SDS011;73376;45.472;-73.568;2024-01-15T07:10:32;1.50;;;0.53;;
83447;SDS011;73376;45.472;-73.568;2024-01-15T07:12:58;1.07;;;0.53;;
83447;SDS011;73376;45.472;-73.568;2024-01-15T07:15:25;3.13;;;0.65;;
83447;SDS011;73376;45.472;-73.568;2024-01-15T07:17:51;1.70;;;0.60;;
83447;SDS011;73376;45.472;-73.568;2024-01-15T07:20:17;1.85;;;0.50;;
83447;SDS011;73376;45.472;-73.568;2024-01-15T07:22:44;1.40;;;0.60;;
83447;SDS011;73376;45.472;-73.568;2024-01-15T07:25:10;1.50;;;0.60;;
83447;SDS011;73376;45.472;-73.568;2024-01-15T07:27:40;2.67;;;0.70;;
83447;SDS011;73376;45.472;-73.568;2024-01-15T07:30:13;1.02;;;0.55;;
83447;SDS011;73376;45.472;-73.568;2024-01-15T07:32:39;3.67;;;0.70;;
83447;SDS011;73376;45.472;-73.568;2024-01-15T07:35:06;2.60;;;0.88;;
83447;SDS011;73376;45.472;-73.568;2024-01-15T07:37:32;2.03;;;0.70;;
83447;SDS011;73376;45.472;-73.568;2024-01-15T07:39:58;4.28;;;1.10;;
83447;SDS011;73376;45.472;-73.568;2024-01-15T07:42:25;2.40;;;0.88;;
83447;SDS011;73376;45.472;-73.568;2024-01-15T07:44:54;1.65;;;0.50;;
83447;SDS011;73376;45.472;-73.568;2024-01-15T07:47:20;1.17;;;0.68;;
83447;SDS011;73376;45.472;-73.568;2024-01-15T07:49:46;3.03;;;0.65;;
83447;SDS011;73376;45.472;-73.568;2024-01-15T07:52:12;2.40;;;0.68;;
83447;SDS011;73376;45.472;-73.568;2024-01-15T07:54:38;1.20;;;0.60;;
83447;SDS011;73376;45.472;-73.568;2024-01-15T07:57:07;1.60;;;0.70;;
83447;SDS011;73376;45.472;-73.568;2024-01-15T07:59:34;5.35;;;0.50;;
83447;SDS011;73376;45.472;-73.568;2024-01-15T08:02:00;0.95;;;0.40;;
83447;SDS011;73376;45.472;-73.568;2024-01-15T08:04:26;1.88;;;0.60;;
83447;SDS011;73376;45.472;-73.568;2024-01-15T08:06:52;1.30;;;0.50;;
83447;SDS011;73376;45.472;-73.568;2024-01-15T08:09:18;1.20;;;0.60;;
83447;SDS011;73376;45.472;-73.568;2024-01-15T08:11:44;1.47;;;0.63;;
83447;SDS011;73376;45.472;-73.568;2024-01-15T08:14:10;2.23;;;0.70;;
83447;SDS011;73376;45.472;-73.568;2024-01-15T08:16:37;2.30;;;0.90;;
83447;SDS011;73376;45.472;-73.568;2024-01-15T08:19:04;3.47;;;1.05;;
83447;SDS011;73376;45.472;-73.568;2024-01-15T08:21:30;2.65;;;1.20;;
83447;SDS011;73376;45.472;-73.568;2024-01-15T08:23:57;2.22;;;0.60;;
83447;SDS011;73376;45.472;-73.568;2024-01-15T08:26:32;1.77;;;0.65;;
83447;SDS011;73376;45.472;-73.568;2024-01-15T08:28:58;2.47;;;1.00;;
83447;SDS011;73376;45.472;-73.568;2024-01-15T08:31:24;1.43;;;0.80;;
83447;SDS011;73376;45.472;-73.568;2024-01-15T08:33:51;2.50;;;0.70;;
83447;SDS011;73376;45.472;-73.568;2024-01-15T08:36:17;2.80;;;0.82;;
83447;SDS011;73376;45.472;-73.568;2024-01-15T08:38:44;3.73;;;1.00;;
83447;SDS011;73376;45.472;-73.568;2024-01-15T08:41:10;2.08;;;1.17;;
83447;SDS011;73376;45.472;-73.568;2024-01-15T08:43:36;4.53;;;1.50;;
83447;SDS011;73376;45.472;-73.568;2024-01-15T08:46:05;5.37;;;1.40;;
83447;SDS011;73376;45.472;-73.568;2024-01-15T08:48:31;3.50;;;1.37;;
83447;SDS011;73376;45.472;-73.568;2024-01-15T08:50:57;3.27;;;1.70;;
83447;SDS011;73376;45.472;-73.568;2024-01-15T08:53:23;2.53;;;1.33;;
83447;SDS011;73376;45.472;-73.568;2024-01-15T08:55:50;4.40;;;2.10;;
83447;SDS011;73376;45.472;-73.568;2024-01-15T08:58:17;4.10;;;1.63;;
83447;SDS011;73376;45.472;-73.568;2024-01-15T09:00:45;3.77;;;1.77;;
83447;SDS011;73376;45.472;-73.568;2024-01-15T09:03:14;6.23;;;1.60;;
83447;SDS011;73376;45.472;-73.568;2024-01-15T09:05:40;3.63;;;1.40;;
83447;SDS011;73376;45.472;-73.568;2024-01-15T09:08:06;2.78;;;1.45;;
83447;SDS011;73376;45.472;-73.568;2024-01-15T09:10:32;3.03;;;1.47;;
83447;SDS011;73376;45.472;-73.568;2024-01-15T09:12:58;6.93;;;1.53;;
83447;SDS011;73376;45.472;-73.568;2024-01-15T09:15:26;3.25;;;1.30;;
83447;SDS011;73376;45.472;-73.568;2024-01-15T09:17:52;5.78;;;1.35;;
83447;SDS011;73376;45.472;-73.568;2024-01-15T09:20:18;6.60;;;1.63;;
83447;SDS011;73376;45.472;-73.568;2024-01-15T09:22:44;4.40;;;1.53;;
83447;SDS011;73376;45.472;-73.568;2024-01-15T09:25:10;3.13;;;1.53;;
83447;SDS011;73376;45.472;-73.568;2024-01-15T09:27:37;3.75;;;1.88;;
83447;SDS011;73376;45.472;-73.568;2024-01-15T09:30:03;3.00;;;1.45;;
83447;SDS011;73376;45.472;-73.568;2024-01-15T09:32:30;3.87;;;1.70;;
83447;SDS011;73376;45.472;-73.568;2024-01-15T09:35:00;3.77;;;1.60;;
83447;SDS011;73376;45.472;-73.568;2024-01-15T09:37:27;3.07;;;1.53;;
83447;SDS011;73376;45.472;-73.568;2024-01-15T09:39:55;4.87;;;1.60;;
83447;SDS011;73376;45.472;-73.568;2024-01-15T09:42:24;5.15;;;1.70;;
83447;SDS011;73376;45.472;-73.568;2024-01-15T09:44:51;5.57;;;1.43;;
83447;SDS011;73376;45.472;-73.568;2024-01-15T09:47:18;6.27;;;1.60;;
83447;SDS011;73376;45.472;-73.568;2024-01-15T09:49:47;4.00;;;1.67;;
83447;SDS011;73376;45.472;-73.568;2024-01-15T09:52:13;3.07;;;1.30;;
83447;SDS011;73376;45.472;-73.568;2024-01-15T09:54:43;3.37;;;1.67;;
83447;SDS011;73376;45.472;-73.568;2024-01-15T09:57:10;3.27;;;1.50;;
83447;SDS011;73376;45.472;-73.568;2024-01-15T09:59:36;3.27;;;1.60;;
83447;SDS011;73376;45.472;-73.568;2024-01-15T10:02:04;3.83;;;1.70;;
83447;SDS011;73376;45.472;-73.568;2024-01-15T10:04:32;3.87;;;1.50;;
83447;SDS011;73376;45.472;-73.568;2024-01-15T10:06:58;6.20;;;1.37;;
83447;SDS011;73376;45.472;-73.568;2024-01-15T10:09:28;6.00;;;2.10;;
83447;SDS011;73376;45.472;-73.568;2024-01-15T10:11:55;5.35;;;1.92;;
83447;SDS011;73376;45.472;-73.568;2024-01-15T10:14:21;4.50;;;1.50;;
83447;SDS011;73376;45.472;-73.568;2024-01-15T10:16:50;3.63;;;1.60;;
83447;SDS011;73376;45.472;-73.568;2024-01-15T10:19:16;4.33;;;1.87;;
83447;SDS011;73376;45.472;-73.568;2024-01-15T10:21:42;2.90;;;1.53;;
83447;SDS011;73376;45.472;-73.568;2024-01-15T10:24:08;3.60;;;1.70;;
83447;SDS011;73376;45.472;-73.568;2024-01-15T10:26:36;6.22;;;1.48;;
83447;SDS011;73376;45.472;-73.568;2024-01-15T10:29:05;2.90;;;1.23;;
83447;SDS011;73376;45.472;-73.568;2024-01-15T10:31:31;2.77;;;1.40;;
83447;SDS011;73376;45.472;-73.568;2024-01-15T10:34:11;2.40;;;1.40;;
83447;SDS011;73376;45.472;-73.568;2024-01-15T10:36:40;4.80;;;1.93;;
83447;SDS011;73376;45.472;-73.568;2024-01-15T10:39:09;4.63;;;1.60;;
83447;SDS011;73376;45.472;-73.568;2024-01-15T10:41:41;6.80;;;1.63;;
83447;SDS011;73376;45.472;-73.568;2024-01-15T10:44:08;3.67;;;1.70;;
83447;SDS011;73376;45.472;-73.568;2024-01-15T10:46:37;5.07;;;1.75;;
83447;SDS011;73376;45.472;-73.568;2024-01-15T10:49:06;5.00;;;1.80;;
83447;SDS011;73376;45.472;-73.568;2024-01-15T10:51:33;4.80;;;1.70;;
83447;SDS011;73376;45.472;-73.568;2024-01-15T10:54:00;3.85;;;1.65;;
83447;SDS011;73376;45.472;-73.568;2024-01-15T10:56:27;5.18;;;1.80;;
83447;SDS011;73376;45.472;-73.568;2024-01-15T10:58:55;4.17;;;1.50;;
83447;SDS011;73376;45.472;-73.568;2024-01-15T11:01:22;4.27;;;1.63;;
83447;SDS011;73376;45.472;-73.568;2024-01-15T11:03:49;5.55;;;2.00;;
83447;SDS011;73376;45.472;-73.568;2024-01-15T11:06:17;4.28;;;1.45;;
83447;SDS011;73376;45.472;-73.568;2024-01-15T11:08:48;3.57;;;1.40;;
83447;SDS011;73376;45.472;-73.568;2024-01-15T11:11:18;4.90;;;1.70;;
83447;SDS011;73376;45.472;-73.568;2024-01-15T11:13:46;5.63;;;1.80;;
83447;SDS011;73376;45.472;-73.568;2024-01-15T11:16:15;5.88;;;2.00;;
83447;SDS011;73376;45.472;-73.568;2024-01-15T11:18:42;3.70;;;2.25;;
83447;SDS011;73376;45.472;-73.568;2024-01-15T11:28:58;6.32;;;1.92;;
83447;SDS011;73376;45.472;-73.568;2024-01-15T11:34:07;4.20;;;1.90;;
83447;SDS011;73376;45.472;-73.568;2024-01-15T11:41:59;3.97;;;1.80;;
83447;SDS011;73376;45.472;-73.568;2024-01-15T11:44:29;2.90;;;1.55;;
83447;SDS011;73376;45.472;-73.568;2024-01-15T11:52:25;3.78;;;1.58;;
83447;SDS011;73376;45.472;-73.568;2024-01-15T11:57:33;4.50;;;1.40;;
83447;SDS011;73376;45.472;-73.568;2024-01-15T12:00:15;2.33;;;1.23;;
83447;SDS011;73376;45.472;-73.568;2024-01-15T12:02:47;2.30;;;1.30;;
83447;SDS011;73376;45.472;-73.568;2024-01-15T12:05:19;6.57;;;1.50;;
83447;SDS011;73376;45.472;-73.568;2024-01-15T12:07:47;4.33;;;1.30;;
83447;SDS011;73376;45.472;-73.568;2024-01-15T12:10:18;3.17;;;1.40;;
83447;SDS011;73376;45.472;-73.568;2024-01-15T12:12:53;4.63;;;1.53;;
83447;SDS011;73376;45.472;-73.568;2024-01-15T12:15:30;4.07;;;1.20;;
83447;SDS011;73376;45.472;-73.568;2024-01-15T12:17:58;2.97;;;1.20;;
83447;SDS011;73376;45.472;-73.568;2024-01-15T12:20:31;5.60;;;1.50;;
83447;SDS011;73376;45.472;-73.568;2024-01-15T12:22:59;6.95;;;1.50;;
83447;SDS011;73376;45.472;-73.568;2024-01-15T12:25:26;5.50;;;2.08;;
83447;SDS011;73376;45.472;-73.568;2024-01-15T12:27:56;5.20;;;1.40;;
83447;SDS011;73376;45.472;-73.568;2024-01-15T12:30:22;2.58;;;1.30;;
83447;SDS011;73376;45.472;-73.568;2024-01-15T12:32:48;2.87;;;1.30;;
83447;SDS011;73376;45.472;-73.568;2024-01-15T12:35:16;3.67;;;1.40;;
83447;SDS011;73376;45.472;-73.568;2024-01-15T12:37:43;4.70;;;1.33;;
83447;SDS011;73376;45.472;-73.568;2024-01-15T12:40:11;2.83;;;1.40;;
83447;SDS011;73376;45.472;-73.568;2024-01-15T12:42:41;3.90;;;1.35;;
83447;SDS011;73376;45.472;-73.568;2024-01-15T12:45:12;3.63;;;1.20;;
83447;SDS011;73376;45.472;-73.568;2024-01-15T12:47:39;3.90;;;1.05;;
83447;SDS011;73376;45.472;-73.568;2024-01-15T12:50:09;2.00;;;1.37;;
83447;SDS011;73376;45.472;-73.568;2024-01-15T12:52:37;4.90;;;1.48;;
83447;SDS011;73376;45.472;-73.568;2024-01-15T12:55:08;3.20;;;1.20;;
83447;SDS011;73376;45.472;-73.568;2024-01-15T12:57:37;4.40;;;1.40;;
83447;SDS011;73376;45.472;-73.568;2024-01-15T13:00:04;5.30;;;1.40;;
83447;SDS011;73376;45.472;-73.568;2024-01-15T13:02:38;2.37;;;1.10;;
83447;SDS011;73376;45.472;-73.568;2024-01-15T13:05:08;2.22;;;1.10;;
83447;SDS011;73376;45.472;-73.568;2024-01-15T13:07:36;4.37;;;1.67;;
83447;SDS011;73376;45.472;-73.568;2024-01-15T13:10:02;6.67;;;1.40;;
83447;SDS011;73376;45.472;-73.568;2024-01-15T13:12:29;4.17;;;1.60;;
83447;SDS011;73376;45.472;-73.568;2024-01-15T13:14:55;2.77;;;1.40;;
83447;SDS011;73376;45.472;-73.568;2024-01-15T13:17:23;4.70;;;1.60;;
83447;SDS011;73376;45.472;-73.568;2024-01-15T13:19:49;3.30;;;1.50;;
83447;SDS011;73376;45.472;-73.568;2024-01-15T13:22:15;5.27;;;1.90;;
83447;SDS011;73376;45.472;-73.568;2024-01-15T13:24:41;3.67;;;1.27;;
83447;SDS011;73376;45.472;-73.568;2024-01-15T13:27:08;5.07;;;1.67;;
83447;SDS011;73376;45.472;-73.568;2024-01-15T13:29:34;3.20;;;1.50;;
83447;SDS011;73376;45.472;-73.568;2024-01-15T13:32:00;3.40;;;1.47;;
83447;SDS011;73376;45.472;-73.568;2024-01-15T13:34:28;4.30;;;1.70;;
83447;SDS011;73376;45.472;-73.568;2024-01-15T13:36:56;2.13;;;1.20;;
83447;SDS011;73376;45.472;-73.568;2024-01-15T13:39:22;6.17;;;1.50;;
83447;SDS011;73376;45.472;-73.568;2024-01-15T13:41:51;4.03;;;1.77;;
83447;SDS011;73376;45.472;-73.568;2024-01-15T13:44:17;5.00;;;2.30;;
83447;SDS011;73376;45.472;-73.568;2024-01-15T13:46:44;3.67;;;1.57;;
83447;SDS011;73376;45.472;-73.568;2024-01-15T13:49:10;6.40;;;1.70;;
83447;SDS011;73376;45.472;-73.568;2024-01-15T13:51:38;6.47;;;2.27;;
83447;SDS011;73376;45.472;-73.568;2024-01-15T13:54:05;5.93;;;1.70;;
83447;SDS011;73376;45.472;-73.568;2024-01-15T13:56:31;3.10;;;1.50;;
83447;SDS011;73376;45.472;-73.568;2024-01-15T13:59:02;4.97;;;1.77;;
83447;SDS011;73376;45.472;-73.568;2024-01-15T14:01:29;5.43;;;1.90;;
83447;SDS011;73376;45.472;-73.568;2024-01-15T14:03:56;6.53;;;2.20;;
83447;SDS011;73376;45.472;-73.568;2024-01-15T14:06:24;4.23;;;1.80;;
83447;SDS011;73376;45.472;-73.568;2024-01-15T14:08:51;5.60;;;1.70;;
83447;SDS011;73376;45.472;-73.568;2024-01-15T14:11:17;5.23;;;2.00;;
83447;SDS011;73376;45.472;-73.568;2024-01-15T14:13:46;4.60;;;1.70;;
83447;SDS011;73376;45.472;-73.568;2024-01-15T14:16:12;5.93;;;2.20;;
83447;SDS011;73376;45.472;-73.568;2024-01-15T14:18:38;3.33;;;1.80;;
83447;SDS011;73376;45.472;-73.568;2024-01-15T14:21:04;4.80;;;2.00;;
83447;SDS011;73376;45.472;-73.568;2024-01-15T14:23:30;7.57;;;2.10;;
83447;SDS011;73376;45.472;-73.568;2024-01-15T14:25:56;4.73;;;2.20;;
83447;SDS011;73376;45.472;-73.568;2024-01-15T14:28:28;3.97;;;1.87;;
83447;SDS011;73376;45.472;-73.568;2024-01-15T14:30:57;5.38;;;2.25;;
83447;SDS011;73376;45.472;-73.568;2024-01-15T14:33:26;4.77;;;1.80;;
83447;SDS011;73376;45.472;-73.568;2024-01-15T14:35:52;3.50;;;1.57;;
83447;SDS011;73376;45.472;-73.568;2024-01-15T14:38:19;8.73;;;1.97;;
83447;SDS011;73376;45.472;-73.568;2024-01-15T14:40:45;4.47;;;1.67;;
83447;SDS011;73376;45.472;-73.568;2024-01-15T14:43:11;7.27;;;1.70;;
83447;SDS011;73376;45.472;-73.568;2024-01-15T14:45:40;5.90;;;1.97;;
83447;SDS011;73376;45.472;-73.568;2024-01-15T14:48:08;6.80;;;2.47;;
83447;SDS011;73376;45.472;-73.568;2024-01-15T14:50:34;4.57;;;1.20;;